sensor_id;sensor_type;location;lat;lon;timestamp;P1;durP1;ratioP1;P2;durP2;ratioP2
9807;SDS011;4943;52.550;13.462;2023-03-04T00:00:48;22.47;;;16.17;;
9807;SDS011;4943;52.550;13.462;2023-03-04T00:03:19;20.97;;;17.47;;
9807;SDS011;4943;52.550;13.462;2023-03-04T00:05:48;32.07;;;22.17;;
9807;SDS011;4943;52.550;13.462;2023-03-04T00:08:16;25.03;;;19.17;;
9807;SDS011;4943;52.550;13.462;2023-03-04T00:10:44;27.17;;;23.70;;
9807;SDS011;4943;52.550;13.462;2023-03-04T00:13:12;36.57;;;28.93;;
9807;SDS011;4943;52.550;13.462;2023-03-04T00:15:40;27.27;;;23.97;;
9807;SDS011;4943;52.550;13.462;2023-03-04T00:18:09;30.67;;;25.13;;
9807;SDS011;4943;52.550;13.462;2023-03-04T00:20:39;26.17;;;22.27;;
9807;SDS011;4943;52.550;13.462;2023-03-04T00:23:07;39.30;;;30.20;;
9807;SDS011;4943;52.550;13.462;2023-03-04T00:25:35;39.83;;;30.57;;
9807;SDS011;4943;52.550;13.462;2023-03-04T00:28:03;40.30;;;31.07;;
9807;SDS011;4943;52.550;13.462;2023-03-04T00:30:31;43.43;;;30.40;;
9807;SDS011;4943;52.550;13.462;2023-03-04T00:33:00;44.43;;;33.30;;
9807;SDS011;4943;52.550;13.462;2023-03-04T00:35:28;46.70;;;33.03;;
9807;SDS011;4943;52.550;13.462;2023-03-04T00:37:57;33.60;;;25.63;;
9807;SDS011;4943;52.550;13.462;2023-03-04T00:40:25;31.77;;;26.50;;
9807;SDS011;4943;52.550;13.462;2023-03-04T00:42:54;36.30;;;27.20;;
9807;SDS011;4943;52.550;13.462;2023-03-04T00:45:22;44.40;;;30.40;;
9807;SDS011;4943;52.550;13.462;2023-03-04T00:47:50;46.17;;;32.67;;
9807;SDS011;4943;52.550;13.462;2023-03-04T00:50:18;47.50;;;33.27;;
9807;SDS011;4943;52.550;13.462;2023-03-04T00:52:46;48.10;;;33.67;;
9807;SDS011;4943;52.550;13.462;2023-03-04T00:55:16;30.67;;;27.37;;
9807;SDS011;4943;52.550;13.462;2023-03-04T00:57:44;34.37;;;27.67;;
9807;SDS011;4943;52.550;13.462;2023-03-04T01:00:12;34.07;;;29.40;;
9807;SDS011;4943;52.550;13.462;2023-03-04T01:02:41;36.30;;;28.60;;
9807;SDS011;4943;52.550;13.462;2023-03-04T01:05:09;37.00;;;28.93;;
9807;SDS011;4943;52.550;13.462;2023-03-04T01:07:38;35.77;;;28.57;;
9807;SDS011;4943;52.550;13.462;2023-03-04T01:10:07;36.03;;;30.50;;
9807;SDS011;4943;52.550;13.462;2023-03-04T01:12:37;36.03;;;27.67;;
9807;SDS011;4943;52.550;13.462;2023-03-04T01:15:07;26.53;;;23.90;;
9807;SDS011;4943;52.550;13.462;2023-03-04T01:17:36;30.83;;;25.03;;
9807;SDS011;4943;52.550;13.462;2023-03-04T01:20:04;37.43;;;29.10;;
9807;SDS011;4943;52.550;13.462;2023-03-04T01:22:34;52.23;;;34.20;;
9807;SDS011;4943;52.550;13.462;2023-03-04T01:25:02;44.47;;;32.70;;
9807;SDS011;4943;52.550;13.462;2023-03-04T01:27:31;36.73;;;26.23;;
9807;SDS011;4943;52.550;13.462;2023-03-04T01:30:00;32.43;;;28.33;;
9807;SDS011;4943;52.550;13.462;2023-03-04T01:32:28;27.00;;;23.00;;
9807;SDS011;4943;52.550;13.462;2023-03-04T01:34:56;23.07;;;20.70;;
9807;SDS011;4943;52.550;13.462;2023-03-04T01:37:24;17.37;;;15.70;;
9807;SDS011;4943;52.550;13.462;2023-03-04T01:39:52;29.20;;;24.33;;
9807;SDS011;4943;52.550;13.462;2023-03-04T01:42:21;36.47;;;27.40;;
9807;SDS011;4943;52.550;13.462;2023-03-04T01:44:51;18.27;;;16.30;;
9807;SDS011;4943;52.550;13.462;2023-03-04T01:47:21;40.13;;;27.40;;
9807;SDS011;4943;52.550;13.462;2023-03-04T01:49:52;36.03;;;27.63;;
9807;SDS011;4943;52.550;13.462;2023-03-04T01:52:22;39.17;;;22.33;;
9807;SDS011;4943;52.550;13.462;2023-03-04T01:54:51;31.43;;;26.87;;
9807;SDS011;4943;52.550;13.462;2023-03-04T01:57:20;37.03;;;24.87;;
9807;SDS011;4943;52.550;13.462;2023-03-04T02:02:45;32.87;;;25.83;;
9807;SDS011;4943;52.550;13.462;2023-03-04T02:05:13;21.83;;;18.13;;
9807;SDS011;4943;52.550;13.462;2023-03-04T02:07:42;23.03;;;14.23;;
9807;SDS011;4943;52.550;13.462;2023-03-04T02:10:10;17.60;;;14.40;;
9807;SDS011;4943;52.550;13.462;2023-03-04T02:12:39;12.00;;;10.77;;
9807;SDS011;4943;52.550;13.462;2023-03-04T02:15:07;28.50;;;22.43;;
9807;SDS011;4943;52.550;13.462;2023-03-04T02:17:36;37.90;;;26.83;;
9807;SDS011;4943;52.550;13.462;2023-03-04T02:20:09;33.93;;;26.90;;
9807;SDS011;4943;52.550;13.462;2023-03-04T02:22:46;21.97;;;19.40;;
9807;SDS011;4943;52.550;13.462;2023-03-04T02:25:23;27.50;;;23.67;;
9807;SDS011;4943;52.550;13.462;2023-03-04T02:27:56;30.33;;;22.17;;
9807;SDS011;4943;52.550;13.462;2023-03-04T02:30:24;18.73;;;16.20;;
9807;SDS011;4943;52.550;13.462;2023-03-04T02:32:53;18.53;;;16.73;;
9807;SDS011;4943;52.550;13.462;2023-03-04T02:35:21;20.40;;;15.07;;
9807;SDS011;4943;52.550;13.462;2023-03-04T02:37:49;8.53;;;7.10;;
9807;SDS011;4943;52.550;13.462;2023-03-04T02:40:20;22.63;;;18.67;;
9807;SDS011;4943;52.550;13.462;2023-03-04T02:42:52;27.60;;;16.80;;
9807;SDS011;4943;52.550;13.462;2023-03-04T02:45:33;21.77;;;14.37;;
9807;SDS011;4943;52.550;13.462;2023-03-04T02:48:04;15.67;;;11.83;;
9807;SDS011;4943;52.550;13.462;2023-03-04T02:50:35;29.17;;;22.27;;
9807;SDS011;4943;52.550;13.462;2023-03-04T02:53:05;29.87;;;25.03;;
9807;SDS011;4943;52.550;13.462;2023-03-04T02:55:33;34.87;;;26.00;;
9807;SDS011;4943;52.550;13.462;2023-03-04T02:58:01;32.87;;;25.70;;
9807;SDS011;4943;52.550;13.462;2023-03-04T03:00:31;36.40;;;28.90;;
9807;SDS011;4943;52.550;13.462;2023-03-04T03:02:59;36.90;;;29.33;;
9807;SDS011;4943;52.550;13.462;2023-03-04T03:05:28;30.93;;;25.53;;
9807;SDS011;4943;52.550;13.462;2023-03-04T03:07:58;31.50;;;26.20;;
9807;SDS011;4943;52.550;13.462;2023-03-04T03:10:26;33.13;;;28.27;;
9807;SDS011;4943;52.550;13.462;2023-03-04T03:12:54;41.63;;;30.73;;
9807;SDS011;4943;52.550;13.462;2023-03-04T03:15:22;21.73;;;19.50;;
9807;SDS011;4943;52.550;13.462;2023-03-04T03:17:52;36.10;;;23.67;;
9807;SDS011;4943;52.550;13.462;2023-03-04T03:20:20;40.33;;;30.03;;
9807;SDS011;4943;52.550;13.462;2023-03-04T03:22:48;28.93;;;25.17;;
9807;SDS011;4943;52.550;13.462;2023-03-04T03:25:16;44.30;;;32.80;;
9807;SDS011;4943;52.550;13.462;2023-03-04T03:27:44;40.93;;;30.30;;
9807;SDS011;4943;52.550;13.462;2023-03-04T03:30:13;43.00;;;34.67;;
9807;SDS011;4943;52.550;13.462;2023-03-04T03:32:42;47.17;;;31.83;;
9807;SDS011;4943;52.550;13.462;2023-03-04T03:35:11;54.50;;;43.83;;
9807;SDS011;4943;52.550;13.462;2023-03-04T03:37:39;44.63;;;31.10;;
9807;SDS011;4943;52.550;13.462;2023-03-04T03:40:08;65.47;;;36.53;;
9807;SDS011;4943;52.550;13.462;2023-03-04T03:42:37;49.60;;;31.97;;
9807;SDS011;4943;52.550;13.462;2023-03-04T03:45:06;41.33;;;32.20;;
9807;SDS011;4943;52.550;13.462;2023-03-04T03:47:34;41.80;;;30.70;;
9807;SDS011;4943;52.550;13.462;2023-03-04T03:50:03;38.43;;;31.33;;
9807;SDS011;4943;52.550;13.462;2023-03-04T03:52:33;54.10;;;35.33;;
9807;SDS011;4943;52.550;13.462;2023-03-04T03:55:01;52.27;;;34.13;;
9807;SDS011;4943;52.550;13.462;2023-03-04T03:57:29;42.17;;;31.53;;
9807;SDS011;4943;52.550;13.462;2023-03-04T03:59:57;41.00;;;31.73;;
9807;SDS011;4943;52.550;13.462;2023-03-04T04:02:25;54.13;;;35.67;;
9807;SDS011;4943;52.550;13.462;2023-03-04T04:04:54;62.90;;;37.77;;
9807;SDS011;4943;52.550;13.462;2023-03-04T04:07:23;59.13;;;36.47;;
9807;SDS011;4943;52.550;13.462;2023-03-04T04:09:53;44.97;;;31.97;;
9807;SDS011;4943;52.550;13.462;2023-03-04T04:12:21;23.83;;;17.50;;
9807;SDS011;4943;52.550;13.462;2023-03-04T04:14:49;39.23;;;30.27;;
9807;SDS011;4943;52.550;13.462;2023-03-04T04:17:17;34.23;;;27.87;;
9807;SDS011;4943;52.550;13.462;2023-03-04T04:19:45;36.67;;;28.77;;
9807;SDS011;4943;52.550;13.462;2023-03-04T04:22:14;44.17;;;32.83;;
9807;SDS011;4943;52.550;13.462;2023-03-04T04:24:44;36.60;;;27.70;;
9807;SDS011;4943;52.550;13.462;2023-03-04T04:27:13;50.13;;;35.53;;
9807;SDS011;4943;52.550;13.462;2023-03-04T04:29:41;66.20;;;38.77;;
9807;SDS011;4943;52.550;13.462;2023-03-04T04:32:09;54.23;;;35.77;;
9807;SDS011;4943;52.550;13.462;2023-03-04T04:34:38;54.37;;;34.47;;
9807;SDS011;4943;52.550;13.462;2023-03-04T04:37:06;45.63;;;33.20;;
9807;SDS011;4943;52.550;13.462;2023-03-04T04:39:34;45.80;;;32.43;;
9807;SDS011;4943;52.550;13.462;2023-03-04T04:42:03;42.10;;;31.93;;
9807;SDS011;4943;52.550;13.462;2023-03-04T04:44:32;35.80;;;22.90;;
9807;SDS011;4943;52.550;13.462;2023-03-04T04:47:01;52.63;;;34.20;;
9807;SDS011;4943;52.550;13.462;2023-03-04T04:49:29;30.43;;;25.33;;
9807;SDS011;4943;52.550;13.462;2023-03-04T04:51:57;47.17;;;31.93;;
9807;SDS011;4943;52.550;13.462;2023-03-04T04:54:25;56.23;;;34.87;;
9807;SDS011;4943;52.550;13.462;2023-03-04T04:56:53;54.80;;;35.67;;
9807;SDS011;4943;52.550;13.462;2023-03-04T04:59:21;60.63;;;35.50;;
9807;SDS011;4943;52.550;13.462;2023-03-04T05:01:51;37.63;;;30.33;;
9807;SDS011;4943;52.550;13.462;2023-03-04T05:04:19;33.63;;;29.47;;
9807;SDS011;4943;52.550;13.462;2023-03-04T05:06:47;30.50;;;26.03;;
9807;SDS011;4943;52.550;13.462;2023-03-04T05:09:15;44.00;;;30.03;;
9807;SDS011;4943;52.550;13.462;2023-03-04T05:11:44;39.63;;;29.13;;
9807;SDS011;4943;52.550;13.462;2023-03-04T05:14:12;40.50;;;30.27;;
9807;SDS011;4943;52.550;13.462;2023-03-04T05:16:40;37.30;;;29.27;;
9807;SDS011;4943;52.550;13.462;2023-03-04T05:19:10;48.17;;;33.90;;
9807;SDS011;4943;52.550;13.462;2023-03-04T05:21:38;35.90;;;28.20;;
9807;SDS011;4943;52.550;13.462;2023-03-04T05:24:06;45.87;;;29.03;;
9807;SDS011;4943;52.550;13.462;2023-03-04T05:26:34;45.77;;;31.50;;
9807;SDS011;4943;52.550;13.462;2023-03-04T05:29:02;32.97;;;27.73;;
9807;SDS011;4943;52.550;13.462;2023-03-04T05:31:30;42.73;;;31.20;;
9807;SDS011;4943;52.550;13.462;2023-03-04T05:33:58;36.47;;;28.73;;
9807;SDS011;4943;52.550;13.462;2023-03-04T05:36:28;44.43;;;31.50;;
9807;SDS011;4943;52.550;13.462;2023-03-04T05:38:57;31.63;;;25.70;;
9807;SDS011;4943;52.550;13.462;2023-03-04T05:41:25;30.33;;;25.17;;
9807;SDS011;4943;52.550;13.462;2023-03-04T05:43:53;33.97;;;26.20;;
9807;SDS011;4943;52.550;13.462;2023-03-04T05:46:22;45.67;;;32.93;;
9807;SDS011;4943;52.550;13.462;2023-03-04T05:48:51;46.10;;;32.43;;
9807;SDS011;4943;52.550;13.462;2023-03-04T05:51:20;27.73;;;24.53;;
9807;SDS011;4943;52.550;13.462;2023-03-04T05:53:50;34.30;;;28.60;;
9807;SDS011;4943;52.550;13.462;2023-03-04T05:56:18;30.37;;;27.27;;
9807;SDS011;4943;52.550;13.462;2023-03-04T05:58:46;29.17;;;26.17;;
9807;SDS011;4943;52.550;13.462;2023-03-04T06:01:15;25.77;;;23.00;;
9807;SDS011;4943;52.550;13.462;2023-03-04T06:03:43;24.83;;;22.20;;
9807;SDS011;4943;52.550;13.462;2023-03-04T06:06:13;33.60;;;28.80;;
9807;SDS011;4943;52.550;13.462;2023-03-04T06:08:41;51.67;;;35.83;;
9807;SDS011;4943;52.550;13.462;2023-03-04T06:11:11;67.70;;;42.90;;
9807;SDS011;4943;52.550;13.462;2023-03-04T06:13:39;59.93;;;36.60;;
9807;SDS011;4943;52.550;13.462;2023-03-04T06:16:08;49.20;;;35.27;;
9807;SDS011;4943;52.550;13.462;2023-03-04T06:18:36;62.57;;;38.60;;
9807;SDS011;4943;52.550;13.462;2023-03-04T06:21:04;56.80;;;36.10;;
9807;SDS011;4943;52.550;13.462;2023-03-04T06:23:33;44.53;;;34.50;;
9807;SDS011;4943;52.550;13.462;2023-03-04T06:26:01;29.30;;;26.30;;
9807;SDS011;4943;52.550;13.462;2023-03-04T06:28:30;32.07;;;28.53;;
9807;SDS011;4943;52.550;13.462;2023-03-04T06:30:58;32.77;;;29.23;;
9807;SDS011;4943;52.550;13.462;2023-03-04T06:33:27;42.77;;;33.57;;
9807;SDS011;4943;52.550;13.462;2023-03-04T06:35:55;59.20;;;38.40;;
9807;SDS011;4943;52.550;13.462;2023-03-04T06:38:23;56.60;;;37.43;;
9807;SDS011;4943;52.550;13.462;2023-03-04T06:40:52;37.80;;;25.63;;
9807;SDS011;4943;52.550;13.462;2023-03-04T06:43:22;40.37;;;28.53;;
9807;SDS011;4943;52.550;13.462;2023-03-04T06:45:52;43.50;;;33.23;;
9807;SDS011;4943;52.550;13.462;2023-03-04T06:48:20;28.60;;;26.00;;
9807;SDS011;4943;52.550;13.462;2023-03-04T06:50:48;28.37;;;24.93;;
9807;SDS011;4943;52.550;13.462;2023-03-04T06:53:16;27.10;;;24.50;;
9807;SDS011;4943;52.550;13.462;2023-03-04T06:55:45;30.27;;;27.30;;
9807;SDS011;4943;52.550;13.462;2023-03-04T06:58:13;25.83;;;23.70;;
9807;SDS011;4943;52.550;13.462;2023-03-04T07:00:42;15.00;;;14.00;;
9807;SDS011;4943;52.550;13.462;2023-03-04T07:03:12;23.13;;;21.53;;
9807;SDS011;4943;52.550;13.462;2023-03-04T07:05:41;26.50;;;23.87;;
9807;SDS011;4943;52.550;13.462;2023-03-04T07:08:09;11.03;;;10.43;;
9807;SDS011;4943;52.550;13.462;2023-03-04T07:10:37;43.87;;;33.93;;
9807;SDS011;4943;52.550;13.462;2023-03-04T07:13:05;42.07;;;33.13;;
9807;SDS011;4943;52.550;13.462;2023-03-04T07:15:33;41.77;;;32.40;;
9807;SDS011;4943;52.550;13.462;2023-03-04T07:18:01;38.67;;;32.57;;
9807;SDS011;4943;52.550;13.462;2023-03-04T07:20:31;45.73;;;35.33;;
9807;SDS011;4943;52.550;13.462;2023-03-04T07:22:59;37.83;;;31.67;;
9807;SDS011;4943;52.550;13.462;2023-03-04T07:25:27;41.17;;;32.40;;
9807;SDS011;4943;52.550;13.462;2023-03-04T07:27:55;36.57;;;31.90;;
9807;SDS011;4943;52.550;13.462;2023-03-04T07:30:23;47.80;;;37.27;;
9807;SDS011;4943;52.550;13.462;2023-03-04T07:32:51;45.80;;;35.43;;
9807;SDS011;4943;52.550;13.462;2023-03-04T07:35:20;49.43;;;35.87;;
9807;SDS011;4943;52.550;13.462;2023-03-04T07:37:49;27.20;;;24.63;;
9807;SDS011;4943;52.550;13.462;2023-03-04T07:40:17;46.80;;;37.40;;
9807;SDS011;4943;52.550;13.462;2023-03-04T07:42:48;42.50;;;32.83;;
9807;SDS011;4943;52.550;13.462;2023-03-04T07:45:16;46.67;;;36.87;;
9807;SDS011;4943;52.550;13.462;2023-03-04T07:47:45;32.40;;;28.97;;
9807;SDS011;4943;52.550;13.462;2023-03-04T07:50:13;42.43;;;35.37;;
9807;SDS011;4943;52.550;13.462;2023-03-04T07:52:44;49.57;;;35.70;;
9807;SDS011;4943;52.550;13.462;2023-03-04T07:55:17;38.10;;;33.63;;
9807;SDS011;4943;52.550;13.462;2023-03-04T07:57:46;60.50;;;39.00;;
9807;SDS011;4943;52.550;13.462;2023-03-04T08:00:15;45.93;;;36.60;;
9807;SDS011;4943;52.550;13.462;2023-03-04T08:02:44;58.13;;;39.70;;
9807;SDS011;4943;52.550;13.462;2023-03-04T08:05:12;55.00;;;41.30;;
9807;SDS011;4943;52.550;13.462;2023-03-04T08:07:40;48.17;;;37.80;;
9807;SDS011;4943;52.550;13.462;2023-03-04T08:10:09;73.97;;;46.37;;
9807;SDS011;4943;52.550;13.462;2023-03-04T08:12:39;38.57;;;30.40;;
9807;SDS011;4943;52.550;13.462;2023-03-04T08:15:07;63.90;;;43.50;;
9807;SDS011;4943;52.550;13.462;2023-03-04T08:17:36;78.03;;;49.37;;
9807;SDS011;4943;52.550;13.462;2023-03-04T08:20:05;59.50;;;39.83;;
9807;SDS011;4943;52.550;13.462;2023-03-04T08:22:34;69.27;;;42.87;;
9807;SDS011;4943;52.550;13.462;2023-03-04T08:25:02;55.40;;;40.50;;
9807;SDS011;4943;52.550;13.462;2023-03-04T08:27:30;38.67;;;34.50;;
9807;SDS011;4943;52.550;13.462;2023-03-04T08:30:00;52.63;;;40.10;;
9807;SDS011;4943;52.550;13.462;2023-03-04T08:32:28;40.53;;;29.50;;
9807;SDS011;4943;52.550;13.462;2023-03-04T08:34:56;28.80;;;24.20;;
9807;SDS011;4943;52.550;13.462;2023-03-04T08:37:28;36.00;;;29.93;;
9807;SDS011;4943;52.550;13.462;2023-03-04T08:39:56;23.60;;;21.50;;
9807;SDS011;4943;52.550;13.462;2023-03-04T08:42:24;29.17;;;26.23;;
9807;SDS011;4943;52.550;13.462;2023-03-04T08:44:52;28.23;;;18.83;;
9807;SDS011;4943;52.550;13.462;2023-03-04T08:47:21;20.53;;;18.60;;
9807;SDS011;4943;52.550;13.462;2023-03-04T08:49:50;14.53;;;13.23;;
9807;SDS011;4943;52.550;13.462;2023-03-04T08:52:18;20.27;;;18.07;;
9807;SDS011;4943;52.550;13.462;2023-03-04T08:54:46;15.90;;;11.40;;
9807;SDS011;4943;52.550;13.462;2023-03-04T08:57:14;12.87;;;11.10;;
9807;SDS011;4943;52.550;13.462;2023-03-04T08:59:42;19.50;;;12.77;;
9807;SDS011;4943;52.550;13.462;2023-03-04T09:02:10;22.33;;;19.93;;
9807;SDS011;4943;52.550;13.462;2023-03-04T09:04:40;37.83;;;23.97;;
9807;SDS011;4943;52.550;13.462;2023-03-04T09:07:08;25.90;;;22.43;;
9807;SDS011;4943;52.550;13.462;2023-03-04T09:09:36;30.87;;;24.47;;
9807;SDS011;4943;52.550;13.462;2023-03-04T09:12:05;49.00;;;35.90;;
9807;SDS011;4943;52.550;13.462;2023-03-04T09:14:33;44.07;;;32.77;;
9807;SDS011;4943;52.550;13.462;2023-03-04T09:17:01;41.43;;;32.53;;
9807;SDS011;4943;52.550;13.462;2023-03-04T09:19:29;64.87;;;45.43;;
9807;SDS011;4943;52.550;13.462;2023-03-04T09:21:59;68.63;;;49.10;;
9807;SDS011;4943;52.550;13.462;2023-03-04T09:24:27;81.20;;;48.40;;
9807;SDS011;4943;52.550;13.462;2023-03-04T09:26:57;64.17;;;43.23;;
9807;SDS011;4943;52.550;13.462;2023-03-04T09:29:25;90.67;;;59.57;;
9807;SDS011;4943;52.550;13.462;2023-03-04T09:31:53;79.80;;;54.77;;
9807;SDS011;4943;52.550;13.462;2023-03-04T09:34:21;87.60;;;59.07;;
9807;SDS011;4943;52.550;13.462;2023-03-04T09:36:49;76.93;;;49.40;;
9807;SDS011;4943;52.550;13.462;2023-03-04T09:39:18;37.40;;;31.37;;
9807;SDS011;4943;52.550;13.462;2023-03-04T09:41:47;50.03;;;38.90;;
9807;SDS011;4943;52.550;13.462;2023-03-04T09:44:22;26.03;;;23.30;;
9807;SDS011;4943;52.550;13.462;2023-03-04T09:46:52;36.57;;;32.67;;
9807;SDS011;4943;52.550;13.462;2023-03-04T09:49:23;55.20;;;41.97;;
9807;SDS011;4943;52.550;13.462;2023-03-04T09:51:53;64.97;;;48.60;;
9807;SDS011;4943;52.550;13.462;2023-03-04T09:54:35;73.77;;;48.63;;
9807;SDS011;4943;52.550;13.462;2023-03-04T09:57:20;90.57;;;55.90;;
9807;SDS011;4943;52.550;13.462;2023-03-04T09:59:56;77.03;;;54.70;;
9807;SDS011;4943;52.550;13.462;2023-03-04T10:02:36;108.07;;;60.03;;
9807;SDS011;4943;52.550;13.462;2023-03-04T10:05:13;77.40;;;52.77;;
9807;SDS011;4943;52.550;13.462;2023-03-04T10:07:45;46.53;;;37.20;;
9807;SDS011;4943;52.550;13.462;2023-03-04T10:10:18;61.20;;;50.63;;
9807;SDS011;4943;52.550;13.462;2023-03-04T10:12:51;66.40;;;50.30;;
9807;SDS011;4943;52.550;13.462;2023-03-04T10:15:22;62.63;;;48.77;;
9807;SDS011;4943;52.550;13.462;2023-03-04T10:18:00;73.50;;;53.73;;
9807;SDS011;4943;52.550;13.462;2023-03-04T10:20:38;99.87;;;60.57;;
9807;SDS011;4943;52.550;13.462;2023-03-04T10:23:17;81.17;;;56.33;;
9807;SDS011;4943;52.550;13.462;2023-03-04T10:25:49;83.43;;;58.40;;
9807;SDS011;4943;52.550;13.462;2023-03-04T10:28:20;83.13;;;60.00;;
9807;SDS011;4943;52.550;13.462;2023-03-04T10:30:55;71.70;;;55.73;;
9807;SDS011;4943;52.550;13.462;2023-03-04T10:33:26;79.27;;;58.30;;
9807;SDS011;4943;52.550;13.462;2023-03-04T10:35:59;64.20;;;48.47;;
9807;SDS011;4943;52.550;13.462;2023-03-04T10:38:30;93.63;;;61.20;;
9807;SDS011;4943;52.550;13.462;2023-03-04T10:41:04;82.07;;;57.50;;
9807;SDS011;4943;52.550;13.462;2023-03-04T10:43:39;74.67;;;56.47;;
9807;SDS011;4943;52.550;13.462;2023-03-04T10:46:09;79.93;;;59.00;;
9807;SDS011;4943;52.550;13.462;2023-03-04T10:48:39;42.30;;;37.67;;
9807;SDS011;4943;52.550;13.462;2023-03-04T10:51:10;37.33;;;33.30;;
9807;SDS011;4943;52.550;13.462;2023-03-04T10:53:45;45.33;;;40.37;;
9807;SDS011;4943;52.550;13.462;2023-03-04T10:56:33;48.10;;;43.07;;
9807;SDS011;4943;52.550;13.462;2023-03-04T11:02:09;29.10;;;25.43;;
9807;SDS011;4943;52.550;13.462;2023-03-04T11:04:42;36.63;;;33.00;;
9807;SDS011;4943;52.550;13.462;2023-03-04T11:07:15;37.70;;;33.63;;
9807;SDS011;4943;52.550;13.462;2023-03-04T11:09:43;25.07;;;22.50;;
9807;SDS011;4943;52.550;13.462;2023-03-04T11:12:14;34.30;;;30.83;;
9807;SDS011;4943;52.550;13.462;2023-03-04T11:14:46;35.27;;;28.60;;
9807;SDS011;4943;52.550;13.462;2023-03-04T11:17:16;25.07;;;21.57;;
9807;SDS011;4943;52.550;13.462;2023-03-04T11:19:47;31.43;;;28.13;;
9807;SDS011;4943;52.550;13.462;2023-03-04T11:22:19;42.10;;;37.93;;
9807;SDS011;4943;52.550;13.462;2023-03-04T11:24:53;49.80;;;44.07;;
9807;SDS011;4943;52.550;13.462;2023-03-04T11:27:28;67.47;;;52.67;;
9807;SDS011;4943;52.550;13.462;2023-03-04T11:30:13;60.67;;;47.73;;
9807;SDS011;4943;52.550;13.462;2023-03-04T11:32:48;67.60;;;50.33;;
9807;SDS011;4943;52.550;13.462;2023-03-04T11:35:21;48.40;;;40.80;;
9807;SDS011;4943;52.550;13.462;2023-03-04T11:37:52;25.93;;;21.63;;
9807;SDS011;4943;52.550;13.462;2023-03-04T11:40:30;22.27;;;19.20;;
9807;SDS011;4943;52.550;13.462;2023-03-04T11:43:05;28.90;;;25.97;;
9807;SDS011;4943;52.550;13.462;2023-03-04T11:45:44;27.70;;;23.27;;
9807;SDS011;4943;52.550;13.462;2023-03-04T11:48:36;14.37;;;13.07;;
9807;SDS011;4943;52.550;13.462;2023-03-04T11:51:17;29.00;;;25.87;;
9807;SDS011;4943;52.550;13.462;2023-03-04T11:53:56;26.57;;;23.93;;
9807;SDS011;4943;52.550;13.462;2023-03-04T11:56:35;22.40;;;19.97;;
9807;SDS011;4943;52.550;13.462;2023-03-04T11:59:13;26.60;;;23.90;;
9807;SDS011;4943;52.550;13.462;2023-03-04T12:01:51;30.80;;;27.73;;
9807;SDS011;4943;52.550;13.462;2023-03-04T12:04:28;46.30;;;38.20;;
9807;SDS011;4943;52.550;13.462;2023-03-04T12:07:23;73.27;;;50.60;;
9807;SDS011;4943;52.550;13.462;2023-03-04T12:10:11;62.63;;;49.60;;
9807;SDS011;4943;52.550;13.462;2023-03-04T12:12:52;68.30;;;51.43;;
9807;SDS011;4943;52.550;13.462;2023-03-04T12:15:42;81.60;;;58.07;;
9807;SDS011;4943;52.550;13.462;2023-03-04T12:18:19;66.67;;;50.97;;
9807;SDS011;4943;52.550;13.462;2023-03-04T12:20:58;67.30;;;51.23;;
9807;SDS011;4943;52.550;13.462;2023-03-04T12:23:48;77.43;;;59.93;;
9807;SDS011;4943;52.550;13.462;2023-03-04T12:26:40;84.23;;;62.57;;
9807;SDS011;4943;52.550;13.462;2023-03-04T12:29:14;46.07;;;41.13;;
9807;SDS011;4943;52.550;13.462;2023-03-04T12:31:51;79.90;;;62.27;;
9807;SDS011;4943;52.550;13.462;2023-03-04T12:34:37;96.37;;;68.57;;
9807;SDS011;4943;52.550;13.462;2023-03-04T12:37:33;98.73;;;65.77;;
9807;SDS011;4943;52.550;13.462;2023-03-04T12:40:16;106.83;;;71.73;;
9807;SDS011;4943;52.550;13.462;2023-03-04T12:43:12;68.17;;;53.90;;
9807;SDS011;4943;52.550;13.462;2023-03-04T12:46:01;61.77;;;45.33;;
9807;SDS011;4943;52.550;13.462;2023-03-04T12:48:40;86.77;;;64.73;;
9807;SDS011;4943;52.550;13.462;2023-03-04T12:51:16;50.10;;;39.47;;
9807;SDS011;4943;52.550;13.462;2023-03-04T12:53:54;49.97;;;40.57;;
9807;SDS011;4943;52.550;13.462;2023-03-04T12:56:32;54.33;;;44.00;;
9807;SDS011;4943;52.550;13.462;2023-03-04T12:59:05;92.90;;;56.20;;
9807;SDS011;4943;52.550;13.462;2023-03-04T13:01:40;100.23;;;62.70;;
9807;SDS011;4943;52.550;13.462;2023-03-04T13:04:15;66.03;;;49.57;;
9807;SDS011;4943;52.550;13.462;2023-03-04T13:06:53;85.33;;;55.73;;
9807;SDS011;4943;52.550;13.462;2023-03-04T13:09:34;130.20;;;82.53;;
9807;SDS011;4943;52.550;13.462;2023-03-04T13:12:13;106.73;;;68.13;;
9807;SDS011;4943;52.550;13.462;2023-03-04T13:17:44;76.07;;;54.57;;
9807;SDS011;4943;52.550;13.462;2023-03-04T13:20:20;45.90;;;41.30;;
9807;SDS011;4943;52.550;13.462;2023-03-04T13:22:54;22.63;;;20.50;;
9807;SDS011;4943;52.550;13.462;2023-03-04T13:25:28;51.77;;;46.47;;
9807;SDS011;4943;52.550;13.462;2023-03-04T13:42:04;77.23;;;56.80;;
9807;SDS011;4943;52.550;13.462;2023-03-04T13:48:06;28.37;;;22.17;;
9807;SDS011;4943;52.550;13.462;2023-03-04T13:50:50;57.53;;;40.13;;
9807;SDS011;4943;52.550;13.462;2023-03-04T13:53:26;34.57;;;30.37;;
9807;SDS011;4943;52.550;13.462;2023-03-04T13:56:06;35.63;;;28.83;;
9807;SDS011;4943;52.550;13.462;2023-03-04T13:59:03;21.37;;;19.53;;
9807;SDS011;4943;52.550;13.462;2023-03-04T14:01:47;39.60;;;34.93;;
9807;SDS011;4943;52.550;13.462;2023-03-04T14:04:21;49.87;;;42.67;;
9807;SDS011;4943;52.550;13.462;2023-03-04T14:06:51;71.53;;;49.33;;
9807;SDS011;4943;52.550;13.462;2023-03-04T14:09:21;41.97;;;36.13;;
9807;SDS011;4943;52.550;13.462;2023-03-04T14:11:52;31.40;;;28.00;;
9807;SDS011;4943;52.550;13.462;2023-03-04T14:14:24;22.43;;;20.20;;
9807;SDS011;4943;52.550;13.462;2023-03-04T14:16:57;38.10;;;33.40;;
9807;SDS011;4943;52.550;13.462;2023-03-04T14:19:28;20.60;;;18.57;;
9807;SDS011;4943;52.550;13.462;2023-03-04T14:21:58;43.07;;;37.60;;
9807;SDS011;4943;52.550;13.462;2023-03-04T14:24:27;37.60;;;30.47;;
9807;SDS011;4943;52.550;13.462;2023-03-04T14:27:05;26.57;;;23.87;;
9807;SDS011;4943;52.550;13.462;2023-03-04T14:29:39;24.87;;;21.73;;
9807;SDS011;4943;52.550;13.462;2023-03-04T14:32:09;33.40;;;18.53;;
9807;SDS011;4943;52.550;13.462;2023-03-04T14:34:38;22.47;;;20.23;;
9807;SDS011;4943;52.550;13.462;2023-03-04T14:37:17;46.30;;;38.37;;
9807;SDS011;4943;52.550;13.462;2023-03-04T14:39:47;54.63;;;42.43;;
9807;SDS011;4943;52.550;13.462;2023-03-04T14:42:19;42.53;;;35.23;;
9807;SDS011;4943;52.550;13.462;2023-03-04T14:44:50;72.00;;;50.00;;
9807;SDS011;4943;52.550;13.462;2023-03-04T14:47:22;48.57;;;39.63;;
9807;SDS011;4943;52.550;13.462;2023-03-04T14:49:55;65.23;;;46.17;;
9807;SDS011;4943;52.550;13.462;2023-03-04T14:52:29;41.93;;;37.53;;
9807;SDS011;4943;52.550;13.462;2023-03-04T14:55:00;20.47;;;18.50;;
9807;SDS011;4943;52.550;13.462;2023-03-04T14:57:43;27.57;;;24.77;;
9807;SDS011;4943;52.550;13.462;2023-03-04T15:00:23;100.53;;;54.53;;
9807;SDS011;4943;52.550;13.462;2023-03-04T15:02:54;91.87;;;52.63;;
9807;SDS011;4943;52.550;13.462;2023-03-04T15:05:24;72.23;;;48.07;;
9807;SDS011;4943;52.550;13.462;2023-03-04T15:07:55;110.57;;;68.20;;
9807;SDS011;4943;52.550;13.462;2023-03-04T15:10:25;88.10;;;54.00;;
9807;SDS011;4943;52.550;13.462;2023-03-04T15:12:56;87.93;;;54.10;;
9807;SDS011;4943;52.550;13.462;2023-03-04T15:18:20;64.60;;;44.93;;
9807;SDS011;4943;52.550;13.462;2023-03-04T15:20:55;57.70;;;41.33;;
9807;SDS011;4943;52.550;13.462;2023-03-04T15:23:25;82.33;;;47.40;;
9807;SDS011;4943;52.550;13.462;2023-03-04T15:25:55;51.73;;;37.20;;